Time;durP1;ratioP1;P1;durP2;ratioP2;P2;SDS_P1;SDS_P2;PMS_P1;PMS_P2;Temp;Humidity;BMP_temperature;BMP_pressure;BME280_temperature;BME280_humidity;BME280_pressure;Samples;Min_cycle;Max_cycle;Signal;HPM_P1;HPM_P2
2021/07/17 00:01:34;;;;;;;42.80;25.80;;;;;;;;;;5012144;28;20463;-56
2021/07/17 00:04:00;;;;;;;41.08;27.65;;;;;;;;;;5012724;28;20040;-56
2021/07/17 00:06:26;;;;;;;52.70;28.00;;;;;;;;;;5011973;28;20049;-57
2021/07/17 00:08:52;;;;;;;41.40;27.42;;;;;;;;;;5011868;28;20506;-57
2021/07/17 00:11:18;;;;;;;44.72;28.08;;;;;;;;;;5010520;28;20045;-57
2021/07/17 00:13:44;;;;;;;46.67;28.55;;;;;;;;;;5012467;28;20048;-57
2021/07/17 00:16:10;;;;;;;43.95;28.40;;;;;;;;;;5010504;28;20045;-58
2021/07/17 00:18:36;;;;;;;44.67;27.60;;;;;;;;;;5010354;28;20125;-57
2021/07/17 00:21:02;;;;;;;46.70;29.05;;;;;;;;;;5012861;28;20148;-57
2021/07/17 00:23:27;;;;;;;41.88;27.55;;;;;;;;;;5011424;28;20034;-58
2021/07/17 00:25:55;;;;;;;41.90;27.23;;;;;;;;;;5010031;28;20045;-56
2021/07/17 00:28:21;;;;;;;48.28;29.83;;;;;;;;;;5010852;28;20037;-57
2021/07/17 00:30:48;;;;;;;44.53;27.52;;;;;;;;;;5025315;28;20558;-57
2021/07/17 00:33:13;;;;;;;44.13;28.90;;;;;;;;;;5011820;28;20092;-57
2021/07/17 00:35:39;;;;;;;39.72;27.70;;;;;;;;;;5011179;28;20041;-57
2021/07/17 00:38:05;;;;;;;46.67;29.02;;;;;;;;;;5012549;28;20040;-55
2021/07/17 00:40:32;;;;;;;46.78;27.67;;;;;;;;;;5011257;28;20054;-56
2021/07/17 00:42:58;;;;;;;42.97;29.02;;;;;;;;;;5012179;28;20548;-57
2021/07/17 00:45:24;;;;;;;45.75;28.35;;;;;;;;;;5013880;28;20157;-57
2021/07/17 00:47:52;;;;;;;40.40;28.23;;;;;;;;;;5014705;28;20037;-56
2021/07/17 00:50:20;;;;;;;43.67;28.77;;;;;;;;;;5010896;28;20052;-56
2021/07/17 00:52:46;;;;;;;46.58;30.33;;;;;;;;;;5010089;28;22074;-57
2021/07/17 00:55:12;;;;;;;46.45;29.40;;;;;;;;;;5009356;28;20065;-55
2021/07/17 00:57:39;;;;;;;49.85;30.10;;;;;;;;;;5011703;28;20037;-56
2021/07/17 01:00:06;;;;;;;43.30;27.63;;;;;;;;;;5011384;28;20052;-57
2021/07/17 01:02:35;;;;;;;44.65;28.27;;;;;;;;;;5009881;28;20037;-55
2021/07/17 01:05:01;;;;;;;45.70;28.92;;;;;;;;;;5010784;28;20057;-57
2021/07/17 01:07:27;;;;;;;53.75;29.27;;;;;;;;;;5009461;28;20065;-56
2021/07/17 01:09:53;;;;;;;57.58;30.95;;;;;;;;;;5009615;28;20075;-58
2021/07/17 01:12:19;;;;;;;44.30;29.02;;;;;;;;;;5009512;28;20500;-55
2021/07/17 01:14:45;;;;;;;45.70;29.83;;;;;;;;;;5011685;28;20680;-56
2021/07/17 01:17:11;;;;;;;47.03;30.27;;;;;;;;;;5014274;28;20075;-55
2021/07/17 01:19:37;;;;;;;44.85;28.38;;;;;;;;;;5009475;28;20151;-54
2021/07/17 01:22:03;;;;;;;43.83;28.40;;;;;;;;;;5008344;28;20133;-56
2021/07/17 01:24:29;;;;;;;44.92;29.13;;;;;;;;;;5010328;28;20627;-56
2021/07/17 01:26:55;;;;;;;42.40;27.98;;;;;;;;;;5010785;28;20045;-55
2021/07/17 01:29:21;;;;;;;46.15;29.63;;;;;;;;;;5009058;28;20026;-55
2021/07/17 01:31:47;;;;;;;47.95;31.13;;;;;;;;;;5010808;28;20091;-57
2021/07/17 01:34:14;;;;;;;47.25;28.83;;;;;;;;;;5009016;28;20037;-56
2021/07/17 01:36:40;;;;;;;42.05;27.63;;;;;;;;;;5010939;28;20442;-57
2021/07/17 01:39:06;;;;;;;46.72;28.10;;;;;;;;;;5011342;28;22004;-56
2021/07/17 01:41:32;;;;;;;46.40;30.20;;;;;;;;;;5008813;28;20037;-57
2021/07/17 01:43:58;;;;;;;42.92;29.17;;;;;;;;;;5009674;28;20045;-57
2021/07/17 01:46:26;;;;;;;49.72;29.67;;;;;;;;;;5011350;28;20093;-57
2021/07/17 01:48:53;;;;;;;48.47;30.00;;;;;;;;;;5009675;28;20499;-57
2021/07/17 01:51:19;;;;;;;45.08;29.23;;;;;;;;;;5008290;28;20049;-56
2021/07/17 01:53:45;;;;;;;50.35;28.80;;;;;;;;;;5008316;28;20052;-57
2021/07/17 01:56:11;;;;;;;43.10;27.67;;;;;;;;;;5007277;28;20061;-56
2021/07/17 01:58:37;;;;;;;48.25;29.48;;;;;;;;;;5006962;28;20052;-57
2021/07/17 02:01:03;;;;;;;42.28;27.50;;;;;;;;;;5008619;28;20673;-57
2021/07/17 02:03:28;;;;;;;49.05;28.27;;;;;;;;;;5006904;28;20053;-57
2021/07/17 02:05:54;;;;;;;47.90;28.98;;;;;;;;;;5008589;28;20490;-56
2021/07/17 02:08:20;;;;;;;47.38;28.80;;;;;;;;;;5008078;28;20136;-57
2021/07/17 02:10:46;;;;;;;42.70;28.45;;;;;;;;;;5008467;28;20674;-57
2021/07/17 02:13:13;;;;;;;46.22;28.23;;;;;;;;;;5008648;28;20391;-57
2021/07/17 02:15:42;;;;;;;46.47;29.05;;;;;;;;;;5010374;28;20533;-58
2021/07/17 02:18:08;;;;;;;50.00;28.30;;;;;;;;;;5009977;28;20056;-54
2021/07/17 02:20:34;;;;;;;40.10;27.83;;;;;;;;;;5008467;28;20067;-52
2021/07/17 02:22:59;;;;;;;42.42;27.42;;;;;;;;;;5009715;28;21040;-56
2021/07/17 02:25:25;;;;;;;42.30;28.02;;;;;;;;;;5006957;28;20061;-55
2021/07/17 02:27:51;;;;;;;44.85;28.52;;;;;;;;;;5008461;28;20405;-54
2021/07/17 02:30:17;;;;;;;45.65;28.65;;;;;;;;;;5010674;28;21541;-54
2021/07/17 02:32:43;;;;;;;48.83;28.83;;;;;;;;;;5008828;28;20407;-56
2021/07/17 02:35:09;;;;;;;45.60;29.23;;;;;;;;;;5008030;28;20056;-55
2021/07/17 02:37:35;;;;;;;44.47;29.40;;;;;;;;;;5008361;28;20037;-53
2021/07/17 02:40:01;;;;;;;46.33;29.70;;;;;;;;;;5008460;28;20546;-56
2021/07/17 02:42:27;;;;;;;43.28;28.42;;;;;;;;;;5006848;28;20141;-53
2021/07/17 02:44:53;;;;;;;48.97;27.88;;;;;;;;;;5010725;28;20042;-54
2021/07/17 02:47:19;;;;;;;46.10;28.88;;;;;;;;;;5008170;28;20038;-56
2021/07/17 02:49:47;;;;;;;47.28;29.55;;;;;;;;;;5008700;28;20520;-54
2021/07/17 02:52:13;;;;;;;44.28;28.88;;;;;;;;;;5007532;28;20045;-54
2021/07/17 02:54:38;;;;;;;43.80;28.45;;;;;;;;;;5008854;28;20038;-54
2021/07/17 02:57:04;;;;;;;44.75;29.60;;;;;;;;;;5010369;28;20416;-56
2021/07/17 02:59:30;;;;;;;44.38;29.42;;;;;;;;;;5008050;28;20030;-55
2021/07/17 03:01:56;;;;;;;46.10;29.20;;;;;;;;;;5007692;28;20046;-53
2021/07/17 03:04:22;;;;;;;51.13;29.30;;;;;;;;;;5007549;28;20037;-53
2021/07/17 03:06:48;;;;;;;43.72;28.92;;;;;;;;;;5007754;28;20049;-56
2021/07/17 03:09:13;;;;;;;45.47;28.08;;;;;;;;;;5009351;28;20261;-54
2021/07/17 03:11:39;;;;;;;42.50;27.23;;;;;;;;;;5010783;28;20041;-55
2021/07/17 03:14:05;;;;;;;44.40;26.65;;;;;;;;;;5014797;28;20038;-57
2021/07/17 03:16:31;;;;;;;41.95;24.83;;;;;;;;;;5021680;28;20107;-57
2021/07/17 03:19:00;;;;;;;41.95;24.70;;;;;;;;;;5021818;28;20049;-56
2021/07/17 03:21:26;;;;;;;40.03;24.08;;;;;;;;;;5016907;28;20034;-56
2021/07/17 03:23:52;;;;;;;39.90;23.92;;;;;;;;;;5014185;28;20514;-57
2021/07/17 03:26:17;;;;;;;46.97;24.42;;;;;;;;;;5015157;28;20140;-56
2021/07/17 03:28:43;;;;;;;37.72;24.15;;;;;;;;;;5013070;28;20061;-55
2021/07/17 03:31:09;;;;;;;36.63;23.63;;;;;;;;;;5013278;28;20042;-56
2021/07/17 03:33:35;;;;;;;42.53;25.00;;;;;;;;;;5012205;28;20041;-55
2021/07/17 03:36:01;;;;;;;34.38;23.23;;;;;;;;;;5013312;28;20045;-56
2021/07/17 03:38:31;;;;;;;39.35;24.17;;;;;;;;;;5011152;28;20034;-53
2021/07/17 03:40:56;;;;;;;47.58;25.98;;;;;;;;;;5011244;28;20462;-56
2021/07/17 03:43:22;;;;;;;38.38;24.35;;;;;;;;;;5010504;28;20096;-52
2021/07/17 03:45:48;;;;;;;46.58;24.13;;;;;;;;;;5010976;28;20045;-53
2021/07/17 03:48:14;;;;;;;36.08;24.48;;;;;;;;;;5010616;28;20029;-55
2021/07/17 03:50:40;;;;;;;38.35;24.35;;;;;;;;;;5010793;28;20844;-56
2021/07/17 03:53:05;;;;;;;41.30;23.85;;;;;;;;;;5011428;28;20053;-52
2021/07/17 03:55:31;;;;;;;37.95;23.67;;;;;;;;;;5011636;28;20053;-57
2021/07/17 03:57:57;;;;;;;34.90;23.70;;;;;;;;;;5011235;28;20623;-56
2021/07/17 04:00:23;;;;;;;38.85;24.10;;;;;;;;;;5008829;28;20095;-56
2021/07/17 04:02:49;;;;;;;37.58;21.80;;;;;;;;;;5012336;28;20044;-55
2021/07/17 04:05:15;;;;;;;33.58;22.77;;;;;;;;;;5011488;28;20042;-55
2021/07/17 04:07:42;;;;;;;38.90;23.20;;;;;;;;;;5009356;28;20053;-57
2021/07/17 04:10:10;;;;;;;36.15;21.85;;;;;;;;;;5011562;28;20132;-55
2021/07/17 04:12:36;;;;;;;37.90;23.27;;;;;;;;;;5011402;28;20053;-55
2021/07/17 04:15:03;;;;;;;37.65;22.35;;;;;;;;;;5012391;28;20065;-56
2021/07/17 04:17:28;;;;;;;40.50;22.80;;;;;;;;;;5006689;28;20053;-53
2021/07/17 04:19:54;;;;;;;38.47;22.50;;;;;;;;;;5010745;28;20033;-56
2021/07/17 04:22:20;;;;;;;30.92;21.85;;;;;;;;;;5008998;28;20041;-57
2021/07/17 04:24:46;;;;;;;39.53;22.33;;;;;;;;;;5011650;28;20088;-56
2021/07/17 04:27:12;;;;;;;36.95;23.60;;;;;;;;;;5014975;28;22068;-56
2021/07/17 04:29:38;;;;;;;39.50;22.55;;;;;;;;;;5013562;28;20042;-57
2021/07/17 04:32:04;;;;;;;36.22;22.58;;;;;;;;;;5012145;28;20049;-53
2021/07/17 04:34:30;;;;;;;38.17;22.45;;;;;;;;;;5011170;28;20060;-53
2021/07/17 04:36:56;;;;;;;33.72;21.17;;;;;;;;;;5012064;28;20046;-57
2021/07/17 04:39:22;;;;;;;30.90;21.10;;;;;;;;;;5017115;28;20057;-59
2021/07/17 04:41:48;;;;;;;37.20;21.00;;;;;;;;;;5010528;28;20041;-53
2021/07/17 04:44:13;;;;;;;35.05;20.92;;;;;;;;;;5009382;28;20042;-55
2021/07/17 04:46:39;;;;;;;29.77;20.40;;;;;;;;;;5009878;28;20040;-54
2021/07/17 04:49:05;;;;;;;33.15;20.95;;;;;;;;;;5012406;28;20129;-56
2021/07/17 04:51:31;;;;;;;42.08;23.42;;;;;;;;;;5009382;28;20067;-55
2021/07/17 04:53:57;;;;;;;37.03;22.02;;;;;;;;;;5015027;28;20055;-56
2021/07/17 04:56:23;;;;;;;35.40;22.00;;;;;;;;;;5012976;28;20057;-56
2021/07/17 04:58:48;;;;;;;40.95;22.35;;;;;;;;;;5012348;28;20037;-55
2021/07/17 05:01:14;;;;;;;37.53;21.58;;;;;;;;;;5011209;28;20106;-56
2021/07/17 05:03:40;;;;;;;34.90;21.38;;;;;;;;;;5014364;28;20219;-56
2021/07/17 05:06:06;;;;;;;35.58;19.73;;;;;;;;;;5012927;28;20100;-55
2021/07/17 05:08:32;;;;;;;36.85;21.92;;;;;;;;;;5026317;28;20034;-54
2021/07/17 05:10:58;;;;;;;40.58;20.75;;;;;;;;;;5013845;28;20511;-54
2021/07/17 05:13:24;;;;;;;36.80;21.45;;;;;;;;;;5012542;28;20038;-55
2021/07/17 05:15:50;;;;;;;42.72;23.67;;;;;;;;;;5011840;28;20559;-55
2021/07/17 05:18:16;;;;;;;41.05;21.27;;;;;;;;;;5010769;28;20574;-53
2021/07/17 05:20:42;;;;;;;32.40;19.85;;;;;;;;;;5009838;28;20038;-55
2021/07/17 05:23:09;;;;;;;41.00;22.30;;;;;;;;;;5012302;28;20037;-55
2021/07/17 05:25:35;;;;;;;40.95;21.75;;;;;;;;;;5011964;28;20038;-55
2021/07/17 05:28:01;;;;;;;35.70;20.60;;;;;;;;;;5011922;28;20050;-55
2021/07/17 05:30:27;;;;;;;32.50;20.80;;;;;;;;;;5011371;28;20048;-56
2021/07/17 05:32:53;;;;;;;34.80;20.55;;;;;;;;;;5015191;28;20069;-54
2021/07/17 05:35:19;;;;;;;37.22;21.48;;;;;;;;;;5014013;28;20057;-56
2021/07/17 05:37:45;;;;;;;39.40;21.52;;;;;;;;;;5013250;28;20041;-52
2021/07/17 05:40:11;;;;;;;33.03;20.15;;;;;;;;;;5012878;28;20513;-55
2021/07/17 05:42:37;;;;;;;32.15;19.45;;;;;;;;;;5013126;28;20037;-54
2021/07/17 05:45:02;;;;;;;30.77;19.42;;;;;;;;;;5014408;28;20179;-54
2021/07/17 05:47:29;;;;;;;31.90;19.48;;;;;;;;;;5013887;28;20034;-53
2021/07/17 05:49:55;;;;;;;34.20;19.23;;;;;;;;;;5017202;28;20041;-53
2021/07/17 05:52:21;;;;;;;35.90;21.65;;;;;;;;;;5016968;28;20037;-56
2021/07/17 05:54:46;;;;;;;35.78;20.13;;;;;;;;;;5016330;28;20044;-55
2021/07/17 05:57:12;;;;;;;35.45;19.42;;;;;;;;;;5015407;28;20065;-53
2021/07/17 05:59:38;;;;;;;35.00;19.10;;;;;;;;;;5013397;28;20062;-57
2021/07/17 06:02:05;;;;;;;38.47;20.25;;;;;;;;;;5013224;28;20037;-56
2021/07/17 06:04:30;;;;;;;34.35;20.50;;;;;;;;;;5014392;28;20041;-55
2021/07/17 06:06:56;;;;;;;32.65;20.40;;;;;;;;;;5011337;28;20384;-56
2021/07/17 06:09:22;;;;;;;32.55;19.20;;;;;;;;;;5023018;28;20095;-52
2021/07/17 06:11:48;;;;;;;34.30;19.23;;;;;;;;;;5010750;28;20033;-55
2021/07/17 06:14:14;;;;;;;32.50;19.95;;;;;;;;;;5010509;28;20675;-55
2021/07/17 06:16:40;;;;;;;33.30;20.75;;;;;;;;;;5009077;28;20133;-55
2021/07/17 06:19:06;;;;;;;33.25;19.35;;;;;;;;;;5008973;28;20037;-56
2021/07/17 06:21:32;;;;;;;36.72;19.50;;;;;;;;;;5007466;28;20034;-53
2021/07/17 06:23:58;;;;;;;33.17;20.65;;;;;;;;;;5011889;28;20041;-55
2021/07/17 06:26:24;;;;;;;33.78;18.92;;;;;;;;;;5009659;28;20163;-56
2021/07/17 06:28:50;;;;;;;29.42;18.40;;;;;;;;;;5010859;28;20045;-56
2021/07/17 06:31:17;;;;;;;34.25;19.20;;;;;;;;;;5010039;28;20069;-52
2021/07/17 06:33:42;;;;;;;31.30;19.13;;;;;;;;;;5009208;28;20049;-52
2021/07/17 06:36:09;;;;;;;34.70;18.52;;;;;;;;;;5006634;28;20909;-54
2021/07/17 06:38:35;;;;;;;37.83;19.10;;;;;;;;;;5009412;28;20042;-53
2021/07/17 06:41:01;;;;;;;29.17;17.75;;;;;;;;;;5010926;28;20111;-54
2021/07/17 06:43:28;;;;;;;32.55;18.73;;;;;;;;;;5007206;28;20033;-54
2021/07/17 06:45:53;;;;;;;29.55;17.92;;;;;;;;;;5010712;28;20091;-55
2021/07/17 06:48:19;;;;;;;29.10;18.23;;;;;;;;;;5010148;28;20467;-54
2021/07/17 06:50:47;;;;;;;31.98;18.45;;;;;;;;;;5009176;28;20115;-51
2021/07/17 06:53:13;;;;;;;33.45;17.67;;;;;;;;;;5009902;28;20105;-54
2021/07/17 06:55:39;;;;;;;32.72;18.98;;;;;;;;;;5009050;28;20046;-54
2021/07/17 06:58:05;;;;;;;31.10;18.02;;;;;;;;;;5008310;28;20049;-55
2021/07/17 07:00:33;;;;;;;37.05;18.52;;;;;;;;;;5022546;28;20040;-53
2021/07/17 07:03:00;;;;;;;31.25;18.25;;;;;;;;;;5006316;28;20325;-55
2021/07/17 07:05:26;;;;;;;30.63;17.75;;;;;;;;;;5009065;28;20120;-55
2021/07/17 07:07:51;;;;;;;30.63;17.90;;;;;;;;;;5010710;28;20036;-55
2021/07/17 07:10:18;;;;;;;34.65;17.92;;;;;;;;;;5008900;28;20417;-54
2021/07/17 07:12:44;;;;;;;29.30;18.48;;;;;;;;;;5010896;28;20045;-52
2021/07/17 07:15:10;;;;;;;29.65;17.95;;;;;;;;;;5010396;28;20088;-55
2021/07/17 07:17:37;;;;;;;27.77;17.30;;;;;;;;;;5009367;28;20503;-52
2021/07/17 07:20:03;;;;;;;36.25;18.10;;;;;;;;;;5009097;28;20606;-56
2021/07/17 07:22:29;;;;;;;33.90;18.80;;;;;;;;;;5007360;28;20041;-53
2021/07/17 07:24:55;;;;;;;29.00;17.48;;;;;;;;;;5009645;28;20041;-53
2021/07/17 07:27:21;;;;;;;35.97;18.40;;;;;;;;;;5012204;28;20044;-55
2021/07/17 07:29:47;;;;;;;33.47;17.60;;;;;;;;;;5007714;28;20382;-55
2021/07/17 07:32:13;;;;;;;34.75;18.30;;;;;;;;;;5010082;28;20046;-54
2021/07/17 07:34:38;;;;;;;31.42;17.65;;;;;;;;;;5010631;28;20053;-55
2021/07/17 07:37:04;;;;;;;34.97;18.80;;;;;;;;;;5008854;28;20050;-56
2021/07/17 07:39:30;;;;;;;32.95;18.13;;;;;;;;;;5007286;28;20386;-55
2021/07/17 07:41:56;;;;;;;29.92;17.88;;;;;;;;;;5007223;28;20497;-55
2021/07/17 07:44:22;;;;;;;28.10;17.60;;;;;;;;;;5011259;28;21744;-55
2021/07/17 07:46:49;;;;;;;29.30;18.05;;;;;;;;;;5012998;28;20046;-52
2021/07/17 07:49:15;;;;;;;28.73;17.63;;;;;;;;;;5011217;28;20040;-54
2021/07/17 07:51:41;;;;;;;35.22;17.65;;;;;;;;;;5007614;28;20398;-52
2021/07/17 07:54:07;;;;;;;28.65;18.13;;;;;;;;;;5009643;28;20139;-54
2021/07/17 07:56:33;;;;;;;29.73;17.63;;;;;;;;;;5010779;28;20049;-53
2021/07/17 07:58:59;;;;;;;29.83;17.95;;;;;;;;;;5012661;28;20593;-52
2021/07/17 08:01:24;;;;;;;30.45;17.35;;;;;;;;;;5010824;28;20041;-55
2021/07/17 08:03:50;;;;;;;30.48;18.13;;;;;;;;;;5013365;28;20041;-54
2021/07/17 08:06:16;;;;;;;35.72;17.50;;;;;;;;;;5014214;28;21016;-55
2021/07/17 08:08:42;;;;;;;33.75;17.52;;;;;;;;;;5012839;28;20737;-54
2021/07/17 08:11:08;;;;;;;32.97;18.42;;;;;;;;;;5015329;28;20045;-53
2021/07/17 08:13:34;;;;;;;29.48;18.42;;;;;;;;;;5012607;28;20355;-53
2021/07/17 08:16:01;;;;;;;35.95;17.67;;;;;;;;;;5013335;28;20061;-51
2021/07/17 08:18:27;;;;;;;34.65;17.92;;;;;;;;;;5010503;28;20478;-54
2021/07/17 08:20:53;;;;;;;28.15;16.63;;;;;;;;;;5011556;28;20045;-54
2021/07/17 08:23:19;;;;;;;34.03;17.58;;;;;;;;;;5015951;28;20504;-53
2021/07/17 08:25:45;;;;;;;31.80;19.30;;;;;;;;;;5013274;28;20100;-54
2021/07/17 08:28:11;;;;;;;31.00;18.15;;;;;;;;;;5013620;28;20046;-51
2021/07/17 08:30:37;;;;;;;31.50;18.58;;;;;;;;;;5011393;28;20041;-52
2021/07/17 08:33:04;;;;;;;37.40;18.73;;;;;;;;;;5013161;28;20076;-54
2021/07/17 08:35:30;;;;;;;30.60;17.23;;;;;;;;;;5011815;28;20762;-54
2021/07/17 08:37:55;;;;;;;34.95;16.67;;;;;;;;;;5012647;28;20124;-51
2021/07/17 08:40:22;;;;;;;32.90;18.55;;;;;;;;;;5009680;28;20394;-51
2021/07/17 08:42:48;;;;;;;33.65;17.95;;;;;;;;;;5011495;28;20127;-55
2021/07/17 08:45:14;;;;;;;31.38;16.88;;;;;;;;;;5014143;28;20123;-53
2021/07/17 08:47:42;;;;;;;30.83;17.58;;;;;;;;;;5010693;28;20097;-51
2021/07/17 08:50:09;;;;;;;27.02;13.93;;;;;;;;;;5011976;28;20050;-51
2021/07/17 08:52:35;;;;;;;33.55;17.88;;;;;;;;;;5011209;28;20049;-54
2021/07/17 08:55:04;;;;;;;30.17;16.13;;;;;;;;;;5011759;28;20046;-55
2021/07/17 08:57:33;;;;;;;37.58;16.73;;;;;;;;;;5007459;28;20071;-53
2021/07/17 09:00:00;;;;;;;31.98;16.88;;;;;;;;;;5011044;28;20127;-54
2021/07/17 09:02:26;;;;;;;28.75;17.00;;;;;;;;;;5010498;28;20034;-55
2021/07/17 09:04:52;;;;;;;31.83;17.73;;;;;;;;;;5015313;28;20041;-53
2021/07/17 09:07:18;;;;;;;31.60;16.17;;;;;;;;;;5010188;28;20033;-52
2021/07/17 09:09:44;;;;;;;30.33;16.60;;;;;;;;;;5015115;28;20562;-53
2021/07/17 09:12:23;;;;;;;28.98;16.42;;;;;;;;;;5010872;28;20126;-54
2021/07/17 09:14:49;;;;;;;31.67;16.45;;;;;;;;;;5010491;28;20129;-54
2021/07/17 09:17:28;;;;;;;29.67;15.88;;;;;;;;;;5009912;28;20049;-51
2021/07/17 09:19:58;;;;;;;29.17;12.65;;;;;;;;;;5008328;28;20053;-52
2021/07/17 09:22:31;;;;;;;21.75;12.52;;;;;;;;;;5008615;28;20914;-55
2021/07/17 09:25:14;;;;;;;25.67;13.10;;;;;;;;;;5009948;28;20709;-52
2021/07/17 09:27:40;;;;;;;28.77;12.40;;;;;;;;;;5005726;28;20052;-55
2021/07/17 09:30:24;;;;;;;18.58;9.10;;;;;;;;;;5010268;28;20042;-53
2021/07/17 09:33:04;;;;;;;18.67;8.32;;;;;;;;;;5008973;28;20237;-54
2021/07/17 09:35:33;;;;;;;14.88;7.78;;;;;;;;;;5008396;28;20252;-51
2021/07/17 09:38:00;;;;;;;23.73;10.85;;;;;;;;;;5010954;28;20038;-54
2021/07/17 09:40:26;;;;;;;23.33;10.98;;;;;;;;;;5008724;28;20060;-53
2021/07/17 09:42:52;;;;;;;19.52;10.40;;;;;;;;;;5011073;28;20044;-53
2021/07/17 09:45:37;;;;;;;15.57;8.52;;;;;;;;;;5009784;28;20038;-51
2021/07/17 09:48:26;;;;;;;22.27;9.57;;;;;;;;;;5008408;28;20140;-53
2021/07/17 09:50:53;;;;;;;20.27;10.77;;;;;;;;;;5003759;28;20041;-55
2021/07/17 09:53:38;;;;;;;17.10;8.20;;;;;;;;;;5008618;28;20037;-52
2021/07/17 09:56:05;;;;;;;20.60;8.75;;;;;;;;;;5009682;28;20050;-53
2021/07/17 09:58:33;;;;;;;21.52;8.15;;;;;;;;;;5009316;28;20033;-54
2021/07/17 10:01:16;;;;;;;14.48;7.43;;;;;;;;;;5009717;28;20076;-55
2021/07/17 10:03:43;;;;;;;16.73;7.95;;;;;;;;;;5008777;28;20112;-54
2021/07/17 10:06:09;;;;;;;14.80;8.63;;;;;;;;;;5010332;28;21074;-55
2021/07/17 10:08:35;;;;;;;16.45;8.40;;;;;;;;;;5010211;28;20592;-53
2021/07/17 10:11:11;;;;;;;15.93;8.00;;;;;;;;;;5008274;28;20037;-55
2021/07/17 10:13:43;;;;;;;16.33;7.57;;;;;;;;;;5000496;28;20037;-53
2021/07/17 10:16:16;;;;;;;13.65;6.95;;;;;;;;;;5020856;28;20473;-52
2021/07/17 10:18:41;;;;;;;12.57;6.60;;;;;;;;;;5008630;28;20041;-51
2021/07/17 10:21:08;;;;;;;14.40;5.13;;;;;;;;;;5009398;28;20037;-52
2021/07/17 10:23:34;;;;;;;17.20;8.15;;;;;;;;;;5010846;28;20048;-53
2021/07/17 10:26:01;;;;;;;16.52;7.55;;;;;;;;;;5010316;28;20037;-54
2021/07/17 10:28:26;;;;;;;14.63;7.75;;;;;;;;;;5008461;28;20057;-51
2021/07/17 10:30:53;;;;;;;14.93;6.82;;;;;;;;;;5008390;28;20037;-54
2021/07/17 10:33:19;;;;;;;12.80;6.47;;;;;;;;;;5009064;28;20856;-53
2021/07/17 10:35:45;;;;;;;14.70;6.57;;;;;;;;;;5010965;28;20061;-54
2021/07/17 10:38:11;;;;;;;16.15;6.82;;;;;;;;;;5009152;28;20573;-55
2021/07/17 10:40:38;;;;;;;12.68;6.90;;;;;;;;;;5008013;28;22788;-53
2021/07/17 10:43:04;;;;;;;14.43;6.43;;;;;;;;;;5009910;28;20045;-54
2021/07/17 10:45:42;;;;;;;19.77;8.02;;;;;;;;;;5009285;28;20398;-52
2021/07/17 10:48:27;;;;;;;20.60;7.30;;;;;;;;;;5009702;28;20588;-52
2021/07/17 10:50:53;;;;;;;14.10;6.70;;;;;;;;;;5006751;28;20070;-55
2021/07/17 10:53:37;;;;;;;17.63;7.68;;;;;;;;;;5008576;28;20037;-55
2021/07/17 10:56:21;;;;;;;17.00;7.32;;;;;;;;;;5011126;28;20049;-53
2021/07/17 10:58:47;;;;;;;12.77;5.72;;;;;;;;;;5009264;28;20045;-55
2021/07/17 11:01:14;;;;;;;12.65;6.95;;;;;;;;;;5008880;28;20396;-52
2021/07/17 11:03:40;;;;;;;16.52;7.68;;;;;;;;;;5011036;28;20070;-53
2021/07/17 11:06:24;;;;;;;14.27;6.68;;;;;;;;;;5009026;28;20538;-54
2021/07/17 11:08:50;;;;;;;15.30;6.85;;;;;;;;;;5008075;28;20041;-53
2021/07/17 11:11:34;;;;;;;15.65;6.85;;;;;;;;;;5010727;28;20061;-51
2021/07/17 11:14:06;;;;;;;14.60;7.05;;;;;;;;;;5009517;28;20088;-54
2021/07/17 11:16:45;;;;;;;13.25;6.93;;;;;;;;;;5010204;28;20056;-51
2021/07/17 11:19:13;;;;;;;17.25;7.32;;;;;;;;;;5007440;28;20034;-52
2021/07/17 11:21:40;;;;;;;13.95;6.82;;;;;;;;;;5009942;28;20049;-52
2021/07/17 11:24:06;;;;;;;19.20;8.07;;;;;;;;;;5010011;28;20046;-51
2021/07/17 11:26:32;;;;;;;12.20;6.35;;;;;;;;;;5006806;28;20034;-52
2021/07/17 11:29:03;;;;;;;16.20;7.85;;;;;;;;;;5007847;28;20392;-54
2021/07/17 11:31:39;;;;;;;17.55;8.55;;;;;;;;;;5012358;28;20045;-54
2021/07/17 11:34:17;;;;;;;13.98;7.03;;;;;;;;;;5010924;28;20033;-54
2021/07/17 11:36:44;;;;;;;22.35;7.82;;;;;;;;;;5011396;28;20052;-51
2021/07/17 11:39:11;;;;;;;17.45;7.22;;;;;;;;;;5012609;28;20041;-52
2021/07/17 11:41:37;;;;;;;14.77;6.78;;;;;;;;;;5011431;28;20060;-51
2021/07/17 11:44:04;;;;;;;18.95;7.68;;;;;;;;;;5011415;28;20038;-51
2021/07/17 11:46:30;;;;;;;15.57;6.97;;;;;;;;;;5012163;28;20561;-51
2021/07/17 11:49:06;;;;;;;16.60;7.43;;;;;;;;;;5012277;28;21078;-51
2021/07/17 11:51:32;;;;;;;13.77;7.20;;;;;;;;;;5011449;28;20045;-51
2021/07/17 11:53:59;;;;;;;16.33;6.03;;;;;;;;;;5011053;28;20048;-52
2021/07/17 11:56:24;;;;;;;15.55;7.60;;;;;;;;;;5011616;28;20049;-51
2021/07/17 11:58:50;;;;;;;15.75;7.60;;;;;;;;;;5012890;28;20053;-51
2021/07/17 12:01:19;;;;;;;19.77;7.95;;;;;;;;;;5012357;28;20148;-53
2021/07/17 12:03:54;;;;;;;16.63;7.18;;;;;;;;;;5012319;28;20505;-52
2021/07/17 12:06:27;;;;;;;14.48;7.65;;;;;;;;;;5010248;28;20048;-52
2021/07/17 12:08:53;;;;;;;18.20;8.32;;;;;;;;;;5011788;28;20053;-51
2021/07/17 12:11:19;;;;;;;24.38;8.70;;;;;;;;;;5011452;28;20029;-53
2021/07/17 12:13:46;;;;;;;17.25;8.40;;;;;;;;;;5010869;28;20502;-52
2021/07/17 12:16:25;;;;;;;18.50;7.85;;;;;;;;;;5011185;28;20068;-51
2021/07/17 12:18:56;;;;;;;18.83;8.35;;;;;;;;;;5012462;28;20125;-57
2021/07/17 12:21:23;;;;;;;16.10;7.80;;;;;;;;;;5011921;28;20041;-53
2021/07/17 12:23:58;;;;;;;14.43;7.63;;;;;;;;;;5013995;28;20037;-52
2021/07/17 12:26:25;;;;;;;17.52;7.78;;;;;;;;;;5010667;28;20056;-52
2021/07/17 12:28:54;;;;;;;18.63;8.52;;;;;;;;;;5013749;28;20041;-54
2021/07/17 12:31:20;;;;;;;18.17;8.55;;;;;;;;;;5016126;28;20072;-50
2021/07/17 12:33:47;;;;;;;19.48;9.02;;;;;;;;;;5017529;28;20132;-53
2021/07/17 12:36:26;;;;;;;21.25;9.25;;;;;;;;;;5013761;28;20231;-54
2021/07/17 12:38:55;;;;;;;15.70;8.90;;;;;;;;;;5011538;28;20103;-54
2021/07/17 12:41:22;;;;;;;18.67;9.25;;;;;;;;;;5009371;28;20095;-54
2021/07/17 12:43:52;;;;;;;20.35;9.07;;;;;;;;;;5010512;28;20511;-52
2021/07/17 12:46:22;;;;;;;19.95;9.55;;;;;;;;;;5011416;28;20127;-53
2021/07/17 12:48:48;;;;;;;27.63;9.40;;;;;;;;;;5010984;28;20046;-54
2021/07/17 12:51:15;;;;;;;18.88;10.30;;;;;;;;;;5010028;28;21630;-52
2021/07/17 12:53:42;;;;;;;25.33;9.85;;;;;;;;;;5009323;28;20046;-55
2021/07/17 12:56:09;;;;;;;21.00;9.50;;;;;;;;;;5010254;28;20076;-53
2021/07/17 12:58:35;;;;;;;24.08;9.90;;;;;;;;;;5010243;28;20448;-53
2021/07/17 13:01:01;;;;;;;13.68;7.55;;;;;;;;;;5010942;28;20045;-54
2021/07/17 13:03:27;;;;;;;23.48;11.10;;;;;;;;;;5009846;28;20212;-54
2021/07/17 13:05:54;;;;;;;21.95;11.25;;;;;;;;;;5010382;28;20103;-54
2021/07/17 13:08:24;;;;;;;25.45;11.15;;;;;;;;;;5010322;28;20038;-51
2021/07/17 13:10:50;;;;;;;20.15;9.27;;;;;;;;;;5011285;28;20040;-51
2021/07/17 13:13:16;;;;;;;20.05;10.48;;;;;;;;;;5011059;28;20088;-51
2021/07/17 13:15:50;;;;;;;24.08;11.40;;;;;;;;;;5009174;28;20096;-54
2021/07/17 13:18:24;;;;;;;21.58;11.55;;;;;;;;;;5011443;28;20037;-51
2021/07/17 13:21:00;;;;;;;23.98;11.85;;;;;;;;;;5010807;28;20075;-54
2021/07/17 13:23:25;;;;;;;23.35;12.15;;;;;;;;;;5009365;28;20121;-52
2021/07/17 13:25:51;;;;;;;20.05;10.77;;;;;;;;;;5009696;28;20048;-54
2021/07/17 13:28:17;;;;;;;24.55;12.27;;;;;;;;;;5012080;28;20045;-55
2021/07/17 13:30:44;;;;;;;20.40;10.48;;;;;;;;;;5012799;28;20049;-54
2021/07/17 13:33:12;;;;;;;35.83;12.60;;;;;;;;;;5012822;28;20040;-54
2021/07/17 13:35:41;;;;;;;21.98;11.50;;;;;;;;;;5014769;28;20045;-51
2021/07/17 13:38:13;;;;;;;20.70;11.00;;;;;;;;;;5020500;28;20057;-52
2021/07/17 13:40:40;;;;;;;24.30;11.70;;;;;;;;;;5017514;28;20077;-54
2021/07/17 13:43:07;;;;;;;19.30;8.00;;;;;;;;;;5014509;28;20061;-54
2021/07/17 13:45:34;;;;;;;23.98;11.32;;;;;;;;;;5012537;28;20131;-52
2021/07/17 13:48:00;;;;;;;26.38;11.70;;;;;;;;;;5012487;28;20072;-54
2021/07/17 13:50:36;;;;;;;26.10;12.38;;;;;;;;;;5010731;28;20048;-51
2021/07/17 13:53:13;;;;;;;22.38;11.20;;;;;;;;;;5008462;28;20061;-53
2021/07/17 13:55:40;;;;;;;20.85;11.25;;;;;;;;;;5010887;28;22323;-55
2021/07/17 13:58:08;;;;;;;26.15;11.15;;;;;;;;;;5012448;28;20041;-54
2021/07/17 14:00:41;;;;;;;21.77;12.25;;;;;;;;;;5010921;28;20052;-54
2021/07/17 14:03:07;;;;;;;23.15;11.52;;;;;;;;;;5001229;28;20055;-53
2021/07/17 14:05:32;;;;;;;25.30;11.85;;;;;;;;;;5009087;28;20041;-53
2021/07/17 14:07:58;;;;;;;28.02;11.38;;;;;;;;;;5007681;28;20061;-54
2021/07/17 14:10:24;;;;;;;21.98;11.80;;;;;;;;;;5006979;28;20041;-54
2021/07/17 14:12:50;;;;;;;23.52;12.48;;;;;;;;;;5004168;28;20053;-52
2021/07/17 14:15:16;;;;;;;22.50;12.35;;;;;;;;;;5004508;28;20049;-55
2021/07/17 14:17:41;;;;;;;29.52;11.70;;;;;;;;;;5009955;28;20053;-54
2021/07/17 14:20:08;;;;;;;23.70;11.32;;;;;;;;;;5011059;28;20103;-54
2021/07/17 14:22:33;;;;;;;29.33;12.15;;;;;;;;;;5009321;28;20045;-54